Fort Dodge Regional Airport Fort Dodge US
ICAO: KFOD
IATA: FOD
Category: Medium
Scheduled Services: Yes

Elevation: 1156 ft
TransAlt. 18000 ft.

Airport Communications:
AWOS 3:118.775
MINNEAPOLIS CNTR:134
RDO:122.3
CTAF/UNICOM:122.95

KFOD Zoom In..

Runways:

(A) RW 06 length 6547 ft width 150 ft
ILS 109.10 / hdg 63

(B) RW 12 length 5301 ft width 100 ft
---- / hdg 125

(C) RW 24 length 6547 ft width 150 ft
---- / hdg 243

(D) RW 30 length 5301 ft width 100 ft
---- / hdg 305

Location; KFOD
Day. 23 / Time. 06.56 Zulu
* Altimeter: 30.06
* Temperature: 17° c. 62.6°f.
* Wind from: 000° Speed 00 kn.
Dewpoint: 17° c.
Visibility: 7 Statute Miles.
Clouds: Clear (automated report).

KFOD 230656Z AUTO 00000KT 7SM CLR 17/17 A3006 RMK AO2 SLP198 T01720167


Wind - Calm.

 
 
jpsmedia.com for Web Design worldairports.se 2018   terms of use